Time;durP1;ratioP1;P1;durP2;ratioP2;P2;SDS_P1;SDS_P2;PMS_P1;PMS_P2;Temp;Humidity;BMP_temperature;BMP_pressure;BME280_temperature;BME280_humidity;BME280_pressure;Samples;Min_cycle;Max_cycle;Signal;HPM_P1;HPM_P2
2023/05/01 00:02:23;;;;;;;;;6.00;5.33;;;;;23.57;35.25;101679.44;5077714;28;45588;-75
2023/05/01 00:04:49;;;;;;;;;7.00;5.75;;;;;23.52;35.77;101671.13;5077685;28;45372;-75
2023/05/01 00:07:14;;;;;;;;;6.00;5.50;;;;;23.50;35.61;101671.28;5077683;28;45355;-75
2023/05/01 00:09:40;;;;;;;;;6.25;5.25;;;;;23.58;35.43;101675.75;5077620;27;46298;-75
2023/05/01 00:12:05;;;;;;;;;6.25;6.25;;;;;23.57;35.19;101676.78;5077580;28;45412;-75
2023/05/01 00:14:30;;;;;;;;;6.75;6.00;;;;;23.38;35.60;101641.59;5077749;27;45368;-75
2023/05/01 00:16:56;;;;;;;;;6.67;6.67;;;;;23.58;35.38;101672.25;5077792;28;45408;-74
2023/05/01 00:19:21;;;;;;;;;5.00;5.00;;;;;23.45;35.61;101655.00;5077102;28;46019;-75
2023/05/01 00:21:47;;;;;;;;;9.25;6.25;;;;;23.47;35.80;101653.00;5077295;27;45376;-74
2023/05/01 00:24:13;;;;;;;;;6.75;6.75;;;;;23.56;35.71;101667.13;5077546;28;45365;-75
2023/05/01 00:26:39;;;;;;;;;7.00;6.00;;;;;23.57;35.86;101668.78;5077245;27;45465;-74
2023/05/01 00:29:04;;;;;;;;;8.00;7.00;;;;;23.56;35.28;101667.13;5077166;28;45304;-75
2023/05/01 00:31:29;;;;;;;;;8.00;8.00;;;;;23.55;35.35;101668.13;5077223;28;45373;-74
2023/05/01 00:33:55;;;;;;;;;8.75;6.00;;;;;23.48;35.47;101646.69;5076961;27;45397;-75
2023/05/01 00:36:20;;;;;;;;;7.50;6.75;;;;;23.46;35.49;101646.06;5077165;27;45252;-74
2023/05/01 00:38:46;;;;;;;;;8.00;7.75;;;;;23.57;35.59;101652.84;5076891;28;47353;-75
2023/05/01 00:41:11;;;;;;;;;7.00;6.75;;;;;23.40;35.45;101626.31;5077064;27;45444;-75
2023/05/01 00:43:36;;;;;;;;;7.00;7.00;;;;;23.55;35.38;101643.41;5077273;27;45313;-75
2023/05/01 00:46:03;;;;;;;;;7.00;6.75;;;;;23.59;35.19;101644.72;5077086;28;45364;-74
2023/05/01 00:48:28;;;;;;;;;8.25;6.75;;;;;23.58;35.40;101641.22;5076671;28;46310;-75
2023/05/01 00:50:55;;;;;;;;;7.00;7.00;;;;;23.49;35.94;101627.16;5076984;28;45283;-74
2023/05/01 00:53:22;;;;;;;;;7.50;6.50;;;;;23.59;35.64;101628.78;5077185;28;45395;-75
2023/05/01 00:55:47;;;;;;;;;9.00;9.00;;;;;23.59;35.72;101626.94;5076851;28;45289;-75
2023/05/01 00:58:16;;;;;;;;;8.50;7.50;;;;;23.59;35.96;101631.44;5076634;28;46471;-75
2023/05/01 01:00:42;;;;;;;;;7.25;7.25;;;;;23.45;35.60;101609.03;5076760;27;45376;-75
2023/05/01 01:03:07;;;;;;;;;5.00;5.00;;;;;23.55;35.76;101622.16;5076570;28;45431;-75
2023/05/01 01:05:39;;;;;;;;;7.50;6.00;;;;;23.54;35.95;101621.31;5076668;28;45523;-74
2023/05/01 01:08:35;;;;;;;;;10.33;7.00;;;;;23.47;35.55;101607.03;5076742;28;46267;-74
2023/05/01 01:11:32;;;;;;;;;7.00;6.00;;;;;23.44;35.69;101597.59;5065415;27;45389;-75
2023/05/01 01:14:13;;;;;;;;;7.25;7.25;;;;;23.58;35.72;101611.16;5076924;28;45335;-75
2023/05/01 01:16:48;;;;;;;;;8.00;6.50;;;;;23.58;35.64;101616.47;5076737;27;45395;-75
2023/05/01 01:20:07;;;;;;;;;7.00;7.00;;;;;23.57;35.71;101612.19;5076091;28;46535;-76
2023/05/01 01:22:36;;;;;;;;;8.25;8.00;;;;;23.12;35.64;101540.94;4994122;28;45442;-76
2023/05/01 01:25:10;;;;;;;;;8.33;6.00;;;;;23.58;35.89;101613.81;4994128;28;45398;-77
2023/05/01 01:28:01;;;;;;;;;7.75;7.75;;;;;23.56;35.54;101615.81;4994122;28;45461;-76
2023/05/01 01:30:51;;;;;;;;;6.50;5.00;;;;;23.50;35.92;101604.06;4878373;29;46171;-77
2023/05/01 01:33:54;;;;;;;;;8.00;7.25;;;;;23.56;35.54;101616.66;4878151;29;45391;-76
2023/05/01 01:36:36;;;;;;;;;7.75;6.25;;;;;23.55;35.52;101615.00;4878371;29;45419;-75
2023/05/01 01:39:12;;;;;;;;;8.00;6.00;;;;;23.54;36.02;101610.69;4878301;29;45484;-75
2023/05/01 01:41:40;;;;;;;;;9.50;8.25;;;;;23.42;35.79;101590.81;4878288;29;45386;-76
2023/05/01 01:44:16;;;;;;;;;9.00;9.00;;;;;23.55;35.46;101609.69;4878388;29;45240;-75
2023/05/01 01:46:42;;;;;;;;;9.33;8.00;;;;;23.55;35.86;101603.56;4878127;29;45378;-76
2023/05/01 01:49:14;;;;;;;;;7.50;7.50;;;;;23.54;36.19;101601.91;4878338;29;45296;-76
2023/05/01 01:51:41;;;;;;;;;6.00;5.75;;;;;23.55;35.84;101601.72;4878343;29;46265;-76
2023/05/01 01:54:08;;;;;;;;;7.75;7.25;;;;;23.54;35.69;101605.38;4878243;29;45431;-76
2023/05/01 01:56:36;;;;;;;;;9.50;7.00;;;;;23.40;35.62;101577.69;4907320;28;45454;-76
2023/05/01 01:59:05;;;;;;;;;9.00;8.50;;;;;23.55;35.56;101599.06;4935382;28;45423;-76
2023/05/01 02:01:33;;;;;;;;;7.25;6.75;;;;;23.41;35.59;101582.00;4934738;28;45463;-75
2023/05/01 02:04:00;;;;;;;;;8.00;8.00;;;;;23.56;36.19;101602.53;4935272;28;45399;-76
2023/05/01 02:06:28;;;;;;;;;7.00;7.00;;;;;23.55;35.55;101598.25;4953815;28;45552;-77
2023/05/01 02:08:55;;;;;;;;;9.00;7.00;;;;;23.45;36.26;101585.13;5055787;28;45370;-76
2023/05/01 02:11:21;;;;;;;;;8.50;7.75;;;;;23.53;35.81;101593.09;5055499;28;45320;-76
2023/05/01 02:13:48;;;;;;;;;11.00;9.75;;;;;23.47;35.71;101583.16;5055580;28;45405;-75
2023/05/01 02:16:15;;;;;;;;;8.00;8.00;;;;;23.50;35.63;101588.13;5038485;28;45376;-76
2023/05/01 02:18:41;;;;;;;;;11.00;9.50;;;;;23.40;36.16;101564.41;5059299;28;45226;-76
2023/05/01 02:21:09;;;;;;;;;8.50;8.50;;;;;23.45;35.94;101587.78;5058929;28;46184;-76
2023/05/01 02:23:36;;;;;;;;;9.25;8.75;;;;;23.46;35.62;101587.63;5058863;28;45539;-76
2023/05/01 02:26:03;;;;;;;;;10.00;9.25;;;;;23.55;36.28;101595.59;5059062;28;45354;-76
2023/05/01 02:28:29;;;;;;;;;5.75;4.00;;;;;23.41;35.83;101568.72;5076248;27;45357;-76
2023/05/01 02:30:56;;;;;;;;;8.00;6.25;;;;;23.43;35.72;101572.03;5078776;27;45419;-76
2023/05/01 02:33:21;;;;;;;;;10.00;9.00;;;;;23.37;35.74;101565.56;5078922;27;45474;-75
2023/05/01 02:35:47;;;;;;;;;8.25;8.25;;;;;23.49;35.79;101592.63;5079087;27;45457;-76
2023/05/01 02:38:13;;;;;;;;;9.00;7.00;;;;;23.54;35.96;101593.94;5079218;27;45404;-76
2023/05/01 02:40:45;;;;;;;;;7.50;7.50;;;;;23.42;35.57;101585.50;5058651;28;46177;-75
2023/05/01 02:43:14;;;;;;;;;7.00;7.00;;;;;23.12;35.70;101541.78;5058734;28;45234;-76
2023/05/01 02:45:41;;;;;;;;;8.75;8.25;;;;;23.53;35.87;101603.72;5058322;28;45481;-75
2023/05/01 02:48:09;;;;;;;;;7.50;6.75;;;;;23.51;35.70;101601.25;5058904;28;45603;-76
2023/05/01 02:50:39;;;;;;;;;8.00;7.00;;;;;23.45;36.34;101591.28;5058550;28;45420;-74
2023/05/01 02:53:06;;;;;;;;;9.00;9.00;;;;;23.40;35.94;101581.16;5058590;28;45387;-76
2023/05/01 02:55:32;;;;;;;;;10.75;9.50;;;;;23.42;35.88;101578.31;5058574;28;45355;-76
2023/05/01 02:57:58;;;;;;;;;9.50;8.50;;;;;23.40;35.84;101575.03;5058562;28;45286;-76
2023/05/01 03:00:24;;;;;;;;;10.00;8.50;;;;;23.55;35.96;101592.94;5057823;28;46358;-76
2023/05/01 03:02:50;;;;;;;;;10.00;10.00;;;;;23.50;35.98;101590.78;5058295;28;45315;-75
2023/05/01 03:05:15;;;;;;;;;10.00;9.25;;;;;23.56;35.57;101599.88;5058402;28;45295;-75
2023/05/01 03:07:40;;;;;;;;;9.00;8.75;;;;;23.40;35.92;101573.19;5058576;28;45272;-76
2023/05/01 03:10:06;;;;;;;;;9.25;9.00;;;;;23.44;36.10;101576.34;5058379;28;45284;-76
2023/05/01 03:12:32;;;;;;;;;8.50;8.50;;;;;23.55;36.11;101590.28;5058250;28;45318;-76
2023/05/01 03:14:57;;;;;;;;;11.00;9.00;;;;;23.51;35.89;101584.47;5057981;28;45362;-75
2023/05/01 03:17:23;;;;;;;;;10.00;9.00;;;;;23.50;36.06;101574.84;5058437;28;45328;-76
2023/05/01 03:19:48;;;;;;;;;10.25;9.00;;;;;23.54;35.97;101578.00;5058228;28;45426;-76
2023/05/01 03:22:14;;;;;;;;;12.50;8.75;;;;;23.34;36.14;101551.81;5058015;28;45468;-75
2023/05/01 03:24:40;;;;;;;;;9.50;9.00;;;;;23.36;36.15;101552.47;5058271;28;45370;-76
2023/05/01 03:27:06;;;;;;;;;11.00;10.25;;;;;23.39;35.95;101555.59;5055705;28;45638;-75
2023/05/01 03:29:32;;;;;;;;;10.50;8.50;;;;;23.56;35.94;101579.47;5057252;28;46662;-75
2023/05/01 03:31:58;;;;;;;;;12.75;10.25;;;;;23.38;36.06;101553.13;5057938;28;45506;-75
2023/05/01 03:34:23;;;;;;;;;9.25;8.75;;;;;23.34;35.58;101549.16;5058080;28;45489;-75
2023/05/01 03:36:49;;;;;;;;;10.50;9.25;;;;;23.59;35.97;101575.66;5056738;28;45341;-75
2023/05/01 03:39:14;;;;;;;;;9.25;8.50;;;;;23.48;35.88;101571.50;5056411;28;46138;-75
2023/05/01 03:41:39;;;;;;;;;11.00;9.00;;;;;23.58;35.81;101585.44;5057832;28;45541;-75
2023/05/01 03:44:05;;;;;;;;;6.50;6.00;;;;;23.57;35.74;101583.81;5057765;28;45340;-76
2023/05/01 03:46:30;;;;;;;;;9.75;9.75;;;;;23.48;35.72;101569.69;5057925;28;45205;-75
2023/05/01 03:48:56;;;;;;;;;9.00;9.00;;;;;23.43;36.19;101561.41;5057553;28;46011;-75
2023/05/01 03:51:21;;;;;;;;;10.75;9.00;;;;;23.49;35.92;101567.84;5057786;28;45467;-76
2023/05/01 03:53:46;;;;;;;;;9.75;8.25;;;;;23.51;35.55;101568.53;5057800;28;45541;-76
2023/05/01 03:56:12;;;;;;;;;9.00;8.50;;;;;23.55;36.13;101580.47;5057631;28;45415;-75
2023/05/01 03:58:37;;;;;;;;;8.75;8.75;;;;;23.59;36.19;101579.13;5057355;28;46413;-75
2023/05/01 04:01:02;;;;;;;;;12.25;10.00;;;;;23.45;35.86;101561.22;5057359;28;45371;-74
2023/05/01 04:03:28;;;;;;;;;8.50;8.50;;;;;23.59;35.80;101584.44;5057819;28;45420;-76
2023/05/01 04:05:54;;;;;;;;;9.00;8.00;;;;;23.47;36.03;101560.03;5057583;28;45344;-76
2023/05/01 04:08:19;;;;;;;;;8.25;7.75;;;;;23.45;35.64;101558.56;5057424;28;45823;-75
2023/05/01 04:10:44;;;;;;;;;10.00;9.00;;;;;23.44;35.80;101556.94;5057400;28;45369;-75
2023/05/01 04:13:10;;;;;;;;;12.25;8.50;;;;;23.59;35.99;101575.66;5057062;28;45408;-75
2023/05/01 04:15:37;;;;;;;;;10.00;9.00;;;;;23.49;35.93;101568.72;5057372;28;45379;-75
2023/05/01 04:18:03;;;;;;;;;9.75;7.00;;;;;23.50;36.06;101570.38;5057204;28;45652;-76
2023/05/01 04:20:28;;;;;;;;;7.75;7.75;;;;;23.57;35.67;101583.81;5057059;28;45279;-75
2023/05/01 04:22:53;;;;;;;;;7.00;7.00;;;;;23.57;36.24;101578.50;5056125;28;45313;-75
2023/05/01 04:25:19;;;;;;;;;8.25;8.25;;;;;23.56;35.92;101579.47;5057418;28;45379;-75
2023/05/01 04:27:44;;;;;;;;;10.00;9.00;;;;;23.49;35.94;101568.72;5056499;28;46538;-76
2023/05/01 04:30:10;;;;;;;;;9.25;9.25;;;;;23.48;35.97;101564.38;5055801;28;45310;-75
2023/05/01 04:32:35;;;;;;;;;8.33;7.67;;;;;23.56;36.03;101579.47;5057114;28;45287;-73
2023/05/01 04:35:00;;;;;;;;;9.50;9.50;;;;;23.55;36.29;101585.78;5057072;28;45544;-76
2023/05/01 04:37:26;;;;;;;;;8.00;7.25;;;;;23.43;35.89;101564.06;5056712;28;47297;-76
2023/05/01 04:39:52;;;;;;;;;7.00;7.00;;;;;23.50;36.11;101583.66;5070203;28;45397;-75
2023/05/01 04:42:17;;;;;;;;;7.00;6.00;;;;;23.43;35.89;101565.88;5077007;28;45369;-75
2023/05/01 04:44:44;;;;;;;;;5.75;4.75;;;;;23.49;35.75;101567.84;5077404;27;45349;-75
2023/05/01 04:47:09;;;;;;;;;8.25;7.00;;;;;23.55;35.66;101577.81;5059012;28;47673;-76
2023/05/01 04:49:35;;;;;;;;;8.00;8.00;;;;;23.48;36.06;101569.69;5076973;28;45344;-76
2023/05/01 04:52:00;;;;;;;;;8.25;7.50;;;;;23.45;36.17;101564.72;5077168;27;45369;-76
2023/05/01 04:54:26;;;;;;;;;8.00;8.00;;;;;23.42;36.31;101558.94;5076818;28;45360;-76
2023/05/01 04:56:52;;;;;;;;;11.00;8.00;;;;;23.56;35.89;101581.28;5076915;28;47076;-74
2023/05/01 04:59:17;;;;;;;;;9.75;8.75;;;;;23.57;36.01;101580.31;5077021;27;45333;-74
2023/05/01 05:01:43;;;;;;;;;5.00;5.00;;;;;23.56;35.89;101583.94;5076927;28;45392;-73
2023/05/01 05:04:08;;;;;;;;;7.00;5.00;;;;;23.57;36.02;101586.44;5077084;28;45422;-76
2023/05/01 05:06:34;;;;;;;;;9.75;9.00;;;;;23.56;36.04;101584.78;5076552;27;46226;-76
2023/05/01 05:08:59;;;;;;;;;6.67;6.67;;;;;23.50;35.78;101583.66;5076457;28;45450;-75
2023/05/01 05:11:25;;;;;;;;;9.00;8.00;;;;;23.48;36.13;101574.16;5076978;28;45286;-74
2023/05/01 05:13:51;;;;;;;;;8.50;7.50;;;;;23.58;36.21;101589.91;5076745;28;45398;-75
2023/05/01 05:16:16;;;;;;;;;6.00;6.00;;;;;23.53;35.91;101590.44;5076413;27;45903;-76
2023/05/01 05:18:42;;;;;;;;;7.75;6.75;;;;;23.50;35.84;101582.81;5076730;28;45367;-76
2023/05/01 05:21:09;;;;;;;;;8.00;6.67;;;;;23.55;36.04;101584.97;5076721;27;45295;-75
2023/05/01 05:23:35;;;;;;;;;8.00;8.00;;;;;23.40;35.96;101565.22;5076453;27;45334;-76
2023/05/01 05:26:00;;;;;;;;;6.50;6.50;;;;;23.39;36.31;101568.88;5076413;28;45576;-76
2023/05/01 05:28:29;;;;;;;;;6.33;6.33;;;;;23.47;36.17;101575.19;5076373;27;45480;-75
2023/05/01 05:30:55;;;;;;;;;8.00;8.00;;;;;23.49;35.76;101589.09;5076739;28;45269;-76
2023/05/01 05:33:23;;;;;;;;;7.75;6.00;;;;;23.52;35.83;101589.59;5076329;28;45306;-73
2023/05/01 05:35:51;;;;;;;;;7.50;6.50;;;;;23.51;35.56;101587.13;5076102;28;46340;-74
2023/05/01 05:38:17;;;;;;;;;7.00;7.00;;;;;23.57;36.17;101598.91;5075901;28;45437;-76
2023/05/01 05:40:42;;;;;;;;;3.00;3.00;;;;;23.28;35.94;101550.69;5076345;28;45285;-76
2023/05/01 05:43:09;;;;;;;;;9.00;6.33;;;;;23.54;35.59;101596.59;5076460;28;45285;-75
2023/05/01 05:45:34;;;;;;;;;8.50;7.00;;;;;23.42;35.98;101573.00;5076119;28;47102;-76
2023/05/01 05:48:00;;;;;;;;;7.00;7.00;;;;;23.56;35.97;101597.22;5076230;28;45431;-76
2023/05/01 05:50:25;;;;;;;;;8.50;6.75;;;;;23.43;35.86;101577.34;5075255;27;45276;-75
2023/05/01 05:52:51;;;;;;;;;5.00;5.00;;;;;23.56;35.80;101603.38;5076061;28;45556;-75
2023/05/01 05:55:16;;;;;;;;;7.33;6.00;;;;;23.25;35.67;101556.31;5076175;28;45674;-75
2023/05/01 05:57:41;;;;;;;;;6.25;5.00;;;;;23.47;36.13;101588.47;5075983;28;45383;-76
2023/05/01 06:00:09;;;;;;;;;6.50;6.50;;;;;23.47;35.94;101591.91;5075979;28;45449;-75
2023/05/01 06:02:35;;;;;;;;;7.75;7.75;;;;;23.47;35.86;101586.59;5075960;28;45442;-75
2023/05/01 06:05:00;;;;;;;;;7.00;7.00;;;;;23.57;36.04;101606.88;5075662;27;46249;-76
2023/05/01 06:07:27;;;;;;;;;7.00;7.00;;;;;23.42;36.13;101583.63;5057537;28;45336;-76
2023/05/01 06:09:52;;;;;;;;;8.00;8.00;;;;;23.56;36.10;101592.75;5076067;28;45372;-75
2023/05/01 06:12:17;;;;;;;;;5.00;5.00;;;;;23.55;35.90;101592.94;5075945;28;45254;-76
2023/05/01 06:14:43;;;;;;;;;6.33;5.00;;;;;23.51;36.04;101595.94;5057527;28;47147;-75
2023/05/01 06:17:08;;;;;;;;;6.50;5.00;;;;;23.52;36.08;101597.56;5075852;28;45178;-76
2023/05/01 06:19:34;;;;;;;;;4.33;4.33;;;;;23.48;36.25;101590.94;5076024;28;45285;-75
2023/05/01 06:22:00;;;;;;;;;7.00;7.00;;;;;23.55;36.32;101603.56;5075512;28;45492;-76
2023/05/01 06:24:26;;;;;;;;;6.00;6.00;;;;;23.56;35.83;101603.38;5075466;27;46472;-74
2023/05/01 06:26:52;;;;;;;;;7.50;6.00;;;;;23.56;36.06;101605.19;5075549;27;45399;-76
2023/05/01 06:29:18;;;;;;;;;9.75;7.50;;;;;23.57;36.23;101613.03;5075885;28;45297;-75
2023/05/01 06:31:43;;;;;;;;;6.67;6.67;;;;;23.41;35.74;101584.66;5075666;28;45364;-75
2023/05/01 06:34:08;;;;;;;;;6.50;6.50;;;;;23.55;35.89;101608.88;5075428;27;47433;-75
2023/05/01 06:36:34;;;;;;;;;8.00;7.00;;;;;23.45;36.33;101591.28;5075219;28;45401;-76
2023/05/01 06:39:00;;;;;;;;;6.00;6.00;;;;;23.54;36.05;101605.38;5075553;28;45412;-76
2023/05/01 06:41:25;;;;;;;;;5.75;5.75;;;;;23.56;36.39;101607.84;5075609;28;45388;-75
2023/05/01 06:43:51;;;;;;;;;5.00;5.00;;;;;23.54;36.21;101599.25;5075639;28;46411;-75
2023/05/01 06:46:16;;;;;;;;;7.25;5.75;;;;;23.50;36.18;101599.56;5075381;28;45387;-75
2023/05/01 06:48:41;;;;;;;;;6.25;6.25;;;;;23.51;35.76;101598.59;5075534;27;45356;-74
2023/05/01 06:51:07;;;;;;;;;8.00;5.33;;;;;23.58;35.87;101612.00;5075293;28;45360;-75
2023/05/01 06:53:32;;;;;;;;;7.00;7.00;;;;;23.54;35.80;101605.38;5075265;28;47023;-76
2023/05/01 06:55:57;;;;;;;;;6.25;6.25;;;;;23.46;36.07;101592.09;5075377;28;45325;-75
2023/05/01 06:58:23;;;;;;;;;7.00;7.00;;;;;23.52;35.80;101608.19;5075463;28;45375;-75
2023/05/01 07:00:48;;;;;;;;;5.75;5.00;;;;;23.56;36.02;101607.84;5075347;28;45344;-75
2023/05/01 07:03:14;;;;;;;;;6.00;6.00;;;;;23.44;35.82;101586.97;5078021;27;46109;-76
2023/05/01 07:05:39;;;;;;;;;7.50;7.50;;;;;23.40;36.11;101580.34;5078350;27;45423;-75
2023/05/01 07:08:05;;;;;;;;;8.00;5.67;;;;;23.59;36.04;101620.81;5078782;28;45431;-73
2023/05/01 07:10:31;;;;;;;;;6.75;6.75;;;;;23.54;36.36;101609.88;5078760;28;45313;-76
2023/05/01 07:12:56;;;;;;;;;4.25;4.25;;;;;23.58;35.91;101622.63;5078478;28;45353;-76
2023/05/01 07:15:22;;;;;;;;;5.00;5.00;;;;;23.47;36.17;101601.75;5078571;27;45313;-75
2023/05/01 07:17:49;;;;;;;;;6.00;5.75;;;;;23.58;36.31;101621.78;5078775;28;45480;-75
2023/05/01 07:20:15;;;;;;;;;5.67;5.67;;;;;23.50;35.94;101609.38;5078204;28;45414;-75
2023/05/01 07:22:41;;;;;;;;;6.00;6.00;;;;;23.58;35.82;101624.44;5078572;28;46179;-75
2023/05/01 07:25:07;;;;;;;;;6.67;6.67;;;;;23.52;36.17;101620.66;5078167;27;45363;-75
2023/05/01 07:27:32;;;;;;;;;5.33;5.33;;;;;23.57;36.23;101625.47;5078384;27;45358;-76
2023/05/01 07:29:59;;;;;;;;;7.50;6.00;;;;;23.37;36.10;101594.78;5060318;28;45428;-75
2023/05/01 07:32:25;;;;;;;;;9.00;6.33;;;;;23.57;35.92;101626.28;5078054;27;47055;-76
2023/05/01 07:34:51;;;;;;;;;6.00;5.25;;;;;23.48;36.45;101608.69;5077811;27;45548;-76
2023/05/01 07:37:17;;;;;;;;;8.75;7.50;;;;;23.38;36.32;101598.28;5078443;28;45285;-76
2023/05/01 07:39:43;;;;;;;;;4.33;4.33;;;;;23.56;36.50;101627.28;5078177;27;45469;-75
2023/05/01 07:42:08;;;;;;;;;5.67;4.33;;;;;23.22;36.38;101575.25;5078090;28;46217;-76
2023/05/01 07:44:33;;;;;;;;;5.00;4.00;;;;;23.56;36.46;101624.63;5078037;27;45492;-75
2023/05/01 07:47:05;;;;;;;;;5.00;4.75;;;;;23.55;36.67;101622.16;5078220;27;45344;-75
2023/05/01 07:49:37;;;;;;;;;4.75;4.75;;;;;23.56;36.32;101627.28;5077913;28;45325;-75
2023/05/01 07:52:03;;;;;;;;;4.00;4.00;;;;;23.57;36.48;101630.78;5077992;27;45296;-73
2023/05/01 07:54:28;;;;;;;;;4.33;4.33;;;;;23.57;36.20;101630.78;5077862;27;45438;-75
2023/05/01 07:56:55;;;;;;;;;5.00;4.33;;;;;23.57;36.64;101630.78;5078254;27;45247;-75
2023/05/01 07:59:20;;;;;;;;;4.00;4.00;;;;;23.44;36.27;101604.72;5078051;28;45371;-75
2023/05/01 08:01:45;;;;;;;;;5.67;5.67;;;;;23.58;36.49;101625.28;5077354;28;51983;-76
2023/05/01 08:04:11;;;;;;;;;5.00;4.33;;;;;23.48;36.23;101612.19;5077414;28;45321;-76
2023/05/01 08:06:36;;;;;;;;;3.33;3.33;;;;;23.58;36.10;101619.13;5077931;27;45340;-74
2023/05/01 08:09:01;;;;;;;;;6.00;4.75;;;;;23.54;36.38;101616.00;5077802;28;45406;-75
2023/05/01 08:11:28;;;;;;;;;2.00;1.00;;;;;23.56;36.15;101623.78;5077687;28;46121;-76
2023/05/01 08:13:53;;;;;;;;;4.00;4.00;;;;;23.60;36.46;101627.78;5076890;28;45379;-74
2023/05/01 08:16:19;;;;;;;;;4.00;4.00;;;;;23.52;36.07;101615.34;5077637;28;45391;-75
2023/05/01 08:18:45;;;;;;;;;6.00;4.67;;;;;23.58;36.78;101619.97;5077422;27;45381;-75
2023/05/01 08:21:11;;;;;;;;;4.00;2.67;;;;;23.60;36.64;101630.44;5077562;27;46395;-76
2023/05/01 08:23:36;;;;;;;;;5.67;4.67;;;;;23.60;36.45;101633.91;5077380;27;45405;-75
2023/05/01 08:26:02;;;;;;;;;5.00;4.00;;;;;23.52;36.56;101620.66;5077540;28;45435;-76
2023/05/01 08:28:27;;;;;;;;;5.67;4.67;;;;;23.56;36.51;101626.44;5077347;27;45613;-76
2023/05/01 08:30:53;;;;;;;;;7.00;5.67;;;;;23.49;36.61;101615.66;5077317;28;46112;-76
2023/05/01 08:33:18;;;;;;;;;5.00;4.00;;;;;23.49;36.67;101619.19;5077079;28;45451;-73
2023/05/01 08:35:44;;;;;;;;;4.00;4.00;;;;;23.44;36.61;101618.84;5077366;27;45618;-74
2023/05/01 08:38:10;;;;;;;;;3.00;3.00;;;;;23.57;36.62;101642.25;5077395;28;45269;-76
2023/05/01 08:40:37;;;;;;;;;2.00;2.00;;;;;23.61;36.63;101645.34;5077057;28;46240;-74
2023/05/01 08:43:03;;;;;;;;;3.00;3.00;;;;;23.51;36.12;101641.09;5077200;28;45344;-75
2023/05/01 08:45:34;;;;;;;;;3.00;3.00;;;;;23.59;36.60;101656.16;5077261;27;45503;-76
2023/05/01 08:48:03;;;;;;;;;3.67;3.67;;;;;23.45;36.55;101628.44;5076909;28;45218;-75
2023/05/01 08:50:30;;;;;;;;;4.00;3.33;;;;;23.59;36.59;101653.50;5076930;28;47086;-74
2023/05/01 08:52:57;;;;;;;;;4.00;4.00;;;;;23.59;36.17;101661.47;5077046;28;45461;-75
2023/05/01 08:55:25;;;;;;;;;5.00;3.33;;;;;23.59;36.58;101663.31;5077174;28;45415;-76
2023/05/01 08:57:51;;;;;;;;;4.00;3.00;;;;;23.49;36.60;101648.41;5077211;28;45539;-75
2023/05/01 09:00:19;;;;;;;;;3.67;3.67;;;;;23.60;36.25;101659.66;5076698;27;45455;-76
2023/05/01 09:02:47;;;;;;;;;3.67;2.33;;;;;23.47;36.52;101660.16;5076501;28;45387;-74
2023/05/01 09:05:14;;;;;;;;;5.00;5.00;;;;;23.57;36.80;101668.78;5076923;27;45207;-76
2023/05/01 09:07:41;;;;;;;;;5.67;4.67;;;;;23.53;36.50;101667.47;5076933;28;45296;-74
2023/05/01 09:10:07;;;;;;;;;2.33;2.33;;;;;23.59;37.08;101680.06;5076641;28;45471;-74
2023/05/01 09:12:34;;;;;;;;;4.00;3.67;;;;;23.52;36.58;101669.28;5075333;27;45521;-75
2023/05/01 09:15:01;;;;;;;;;2.67;2.67;;;;;23.61;36.43;101679.88;5076758;28;45459;-77
2023/05/01 09:17:30;;;;;;;;;2.00;2.00;;;;;23.60;36.29;101681.72;5076510;28;45414;-76
2023/05/01 09:19:56;;;;;;;;;2.00;2.00;;;;;23.58;36.90;101682.88;5076511;28;46527;-77
2023/05/01 09:22:21;;;;;;;;;2.67;2.67;;;;;23.51;36.65;101672.97;5076528;28;45340;-77
2023/05/01 09:24:47;;;;;;;;;4.00;2.33;;;;;23.61;36.72;101686.03;5076672;28;45358;-77
2023/05/01 09:27:13;;;;;;;;;5.33;2.00;;;;;23.61;36.65;101687.88;5076530;27;45380;-77
2023/05/01 09:29:44;;;;;;;;;4.00;2.67;;;;;23.61;36.76;101701.16;5076437;28;47015;-75
2023/05/01 09:32:15;;;;;;;;;5.00;5.00;;;;;23.59;36.54;101696.00;5075998;28;45331;-76
2023/05/01 09:34:42;;;;;;;;;3.33;3.33;;;;;23.59;36.75;101698.66;5076554;28;45344;-76
2023/05/01 09:37:09;;;;;;;;;5.00;3.67;;;;;23.58;36.48;101696.16;5076475;28;45351;-77
2023/05/01 09:39:35;;;;;;;;;2.67;2.67;;;;;23.63;36.58;101710.59;5075957;27;46296;-76
2023/05/01 09:42:02;;;;;;;;;3.00;3.00;;;;;23.54;36.57;101697.50;5076265;28;45407;-75
2023/05/01 09:44:27;;;;;;;;;2.00;2.00;;;;;23.63;36.69;101707.94;5076074;28;45443;-75
2023/05/01 09:46:53;;;;;;;;;2.67;2.67;;;;;23.65;36.38;101717.59;5076354;28;45457;-76
2023/05/01 09:49:18;;;;;;;;;2.00;2.00;;;;;23.64;36.46;101711.44;5076138;28;47013;-75
2023/05/01 09:51:44;;;;;;;;;2.33;2.33;;;;;23.64;36.50;101714.09;5076238;28;45478;-76
2023/05/01 09:54:19;;;;;;;;;2.00;2.00;;;;;23.52;36.41;101705.66;5076270;27;45350;-76
2023/05/01 09:56:47;;;;;;;;;2.00;1.00;;;;;23.62;36.58;101718.75;5076288;28;45500;-75
2023/05/01 09:59:20;;;;;;;;;2.00;2.00;;;;;23.59;36.91;101719.09;5075656;27;45533;-75
2023/05/01 10:01:48;;;;;;;;;4.00;3.00;;;;;23.46;37.03;101693.03;5075882;27;45442;-75
2023/05/01 10:04:14;;;;;;;;;2.00;2.00;;;;;23.65;37.09;101725.56;5076099;28;45331;-76
2023/05/01 10:06:40;;;;;;;;;1.33;1.33;;;;;23.36;36.49;101677.28;5076087;28;45230;-76
2023/05/01 10:09:09;;;;;;;;;2.00;2.00;;;;;23.35;36.86;101683.56;5075826;28;47099;-75
2023/05/01 10:11:48;;;;;;;;;2.33;2.33;;;;;23.65;36.89;101734.34;5075906;27;45610;-75
2023/05/01 10:14:13;;;;;;;;;1.67;1.00;;;;;23.62;36.98;101724.91;5075513;27;45269;-76
2023/05/01 10:16:39;;;;;;;;;1.00;1.00;;;;;23.54;36.83;101716.09;5076025;28;45223;-77
2023/05/01 10:19:05;;;;;;;;;3.00;2.00;;;;;23.63;36.94;101733.69;5075817;28;46573;-76
2023/05/01 10:21:34;;;;;;;;;3.00;2.33;;;;;23.32;36.54;101686.56;5075734;28;45278;-77
2023/05/01 10:24:02;;;;;;;;;3.00;3.00;;;;;23.60;36.90;101728.72;5075824;28;45386;-76
2023/05/01 10:26:28;;;;;;;;;2.00;2.00;;;;;23.49;36.74;101719.25;5075490;27;45360;-75
2023/05/01 10:28:57;;;;;;;;;2.00;2.00;;;;;23.58;36.54;101736.00;5075290;28;46556;-75
2023/05/01 10:31:23;;;;;;;;;3.00;2.00;;;;;23.62;36.57;101737.34;5075620;28;45518;-76
2023/05/01 10:33:49;;;;;;;;;2.67;2.67;;;;;23.56;36.72;101730.88;5075493;28;45478;-76
2023/05/01 10:36:25;;;;;;;;;1.33;1.33;;;;;23.43;36.74;101702.16;5075548;28;45495;-75
2023/05/01 10:38:51;;;;;;;;;2.33;2.33;;;;;23.60;36.75;101739.34;5078703;28;46482;-76
2023/05/01 10:41:55;;;;;;;;;2.00;2.00;;;;;23.52;37.02;101721.59;5078895;27;45439;-75
2023/05/01 10:44:25;;;;;;;;;2.00;2.00;;;;;23.50;36.82;101721.75;5078905;28;45609;-74
2023/05/01 10:46:51;;;;;;;;;2.00;2.00;;;;;23.60;36.59;101734.84;5079169;27;45447;-75
2023/05/01 10:49:17;;;;;;;;;2.33;2.33;;;;;23.52;36.88;101724.25;5078841;28;45392;-75
2023/05/01 10:51:59;;;;;;;;;1.00;1.00;;;;;23.60;37.04;101740.16;5078823;27;45451;-75
2023/05/01 10:54:27;;;;;;;;;2.33;2.33;;;;;23.61;36.51;101741.81;5078877;28;45502;-76
2023/05/01 10:56:57;;;;;;;;;2.00;2.00;;;;;23.62;36.68;101737.34;5078638;27;45429;-75
2023/05/01 10:59:22;;;;;;;;;1.67;1.67;;;;;23.62;36.53;101753.28;5078679;28;46393;-77
2023/05/01 11:01:52;;;;;;;;;1.00;1.00;;;;;23.58;36.71;101742.16;5060405;28;45382;-75
2023/05/01 11:04:26;;;;;;;;;4.00;2.00;;;;;23.62;36.59;101748.81;5078695;27;45320;-76
2023/05/01 11:06:57;;;;;;;;;1.33;1.33;;;;;23.61;36.61;101749.78;5078705;28;45502;-75
2023/05/01 11:09:57;;;;;;;;;1.33;1.33;;;;;23.62;36.52;101743.50;5078614;27;45370;-76
2023/05/01 11:12:47;;;;;;;;;2.00;2.00;;;;;23.62;37.11;101745.31;4995629;28;45482;-75
2023/05/01 11:15:27;;;;;;;;;1.67;1.67;;;;;23.60;37.11;101750.78;4996041;28;45399;-76
2023/05/01 11:17:53;;;;;;;;;1.33;1.33;;;;;23.47;36.42;101722.06;4996188;28;45319;-76
2023/05/01 11:20:24;;;;;;;;;1.33;1.00;;;;;23.60;36.84;101756.09;4996002;28;46881;-75
2023/05/01 11:22:51;;;;;;;;;3.00;3.00;;;;;23.60;36.71;101760.59;4996124;28;45252;-76
2023/05/01 11:25:29;;;;;;;;;2.33;2.00;;;;;23.36;36.75;101709.97;4996241;28;45498;-75
2023/05/01 11:27:57;;;;;;;;;1.33;1.33;;;;;23.59;36.84;101743.00;4995531;28;45735;-75